sensor_id;sensor_type;location;lat;lon;timestamp;P1;durP1;ratioP1;P2;durP2;ratioP2
7361;SDS011;3721;44.490;11.220;2022-11-10T00:00:29;76.77;;;46.90;;
7361;SDS011;3721;44.490;11.220;2022-11-10T00:02:58;76.23;;;46.20;;
7361;SDS011;3721;44.490;11.220;2022-11-10T00:05:28;95.00;;;48.77;;
7361;SDS011;3721;44.490;11.220;2022-11-10T00:07:55;78.80;;;47.67;;
7361;SDS011;3721;44.490;11.220;2022-11-10T00:10:21;81.77;;;49.97;;
7361;SDS011;3721;44.490;11.220;2022-11-10T00:12:47;88.90;;;50.80;;
7361;SDS011;3721;44.490;11.220;2022-11-10T00:15:13;87.27;;;48.10;;
7361;SDS011;3721;44.490;11.220;2022-11-10T00:17:57;83.30;;;48.90;;
7361;SDS011;3721;44.490;11.220;2022-11-10T00:20:26;93.47;;;52.13;;
7361;SDS011;3721;44.490;11.220;2022-11-10T00:22:53;87.70;;;50.37;;
7361;SDS011;3721;44.490;11.220;2022-11-10T00:25:19;87.93;;;51.10;;
7361;SDS011;3721;44.490;11.220;2022-11-10T00:27:46;82.77;;;47.67;;
7361;SDS011;3721;44.490;11.220;2022-11-10T00:30:13;84.37;;;49.93;;
7361;SDS011;3721;44.490;11.220;2022-11-10T00:32:38;92.50;;;52.30;;
7361;SDS011;3721;44.490;11.220;2022-11-10T00:35:04;81.33;;;46.40;;
7361;SDS011;3721;44.490;11.220;2022-11-10T00:37:31;89.37;;;49.40;;
7361;SDS011;3721;44.490;11.220;2022-11-10T00:39:57;72.10;;;45.10;;
7361;SDS011;3721;44.490;11.220;2022-11-10T00:42:23;68.30;;;44.00;;
7361;SDS011;3721;44.490;11.220;2022-11-10T00:44:48;70.13;;;45.50;;
7361;SDS011;3721;44.490;11.220;2022-11-10T00:47:14;66.00;;;41.30;;
7361;SDS011;3721;44.490;11.220;2022-11-10T00:49:40;69.47;;;43.70;;
7361;SDS011;3721;44.490;11.220;2022-11-10T00:52:05;70.00;;;42.77;;
7361;SDS011;3721;44.490;11.220;2022-11-10T00:54:31;71.00;;;42.13;;
7361;SDS011;3721;44.490;11.220;2022-11-10T00:56:57;69.07;;;42.17;;
7361;SDS011;3721;44.490;11.220;2022-11-10T00:59:22;67.87;;;38.63;;
7361;SDS011;3721;44.490;11.220;2022-11-10T01:01:48;63.67;;;38.80;;
7361;SDS011;3721;44.490;11.220;2022-11-10T01:04:14;67.87;;;40.73;;
7361;SDS011;3721;44.490;11.220;2022-11-10T01:06:39;59.60;;;36.43;;
7361;SDS011;3721;44.490;11.220;2022-11-10T01:09:05;58.20;;;39.43;;
7361;SDS011;3721;44.490;11.220;2022-11-10T01:11:30;59.60;;;39.90;;
7361;SDS011;3721;44.490;11.220;2022-11-10T01:13:56;56.67;;;37.17;;
7361;SDS011;3721;44.490;11.220;2022-11-10T01:16:23;61.40;;;37.97;;
7361;SDS011;3721;44.490;11.220;2022-11-10T01:18:52;58.17;;;39.07;;
7361;SDS011;3721;44.490;11.220;2022-11-10T01:21:20;55.40;;;37.47;;
7361;SDS011;3721;44.490;11.220;2022-11-10T01:23:46;55.80;;;37.70;;
7361;SDS011;3721;44.490;11.220;2022-11-10T01:26:13;61.43;;;38.50;;
7361;SDS011;3721;44.490;11.220;2022-11-10T01:28:39;58.00;;;35.63;;
7361;SDS011;3721;44.490;11.220;2022-11-10T01:31:06;61.57;;;36.83;;
7361;SDS011;3721;44.490;11.220;2022-11-10T01:33:37;52.90;;;36.83;;
7361;SDS011;3721;44.490;11.220;2022-11-10T01:36:03;64.60;;;39.73;;
7361;SDS011;3721;44.490;11.220;2022-11-10T01:38:30;58.73;;;36.57;;
7361;SDS011;3721;44.490;11.220;2022-11-10T01:40:57;52.97;;;37.67;;
7361;SDS011;3721;44.490;11.220;2022-11-10T01:43:24;58.50;;;36.23;;
7361;SDS011;3721;44.490;11.220;2022-11-10T01:45:54;63.77;;;38.30;;
7361;SDS011;3721;44.490;11.220;2022-11-10T01:50:52;57.17;;;38.70;;
7361;SDS011;3721;44.490;11.220;2022-11-10T01:53:21;64.63;;;40.23;;
7361;SDS011;3721;44.490;11.220;2022-11-10T01:55:50;66.27;;;42.70;;
7361;SDS011;3721;44.490;11.220;2022-11-10T01:58:19;69.50;;;41.20;;
7361;SDS011;3721;44.490;11.220;2022-11-10T02:00:49;68.53;;;42.40;;
7361;SDS011;3721;44.490;11.220;2022-11-10T02:05:47;73.67;;;44.27;;
7361;SDS011;3721;44.490;11.220;2022-11-10T02:08:14;82.17;;;45.80;;
7361;SDS011;3721;44.490;11.220;2022-11-10T02:10:41;77.07;;;46.63;;
7361;SDS011;3721;44.490;11.220;2022-11-10T02:13:06;76.13;;;45.70;;
7361;SDS011;3721;44.490;11.220;2022-11-10T02:15:32;79.17;;;45.47;;
7361;SDS011;3721;44.490;11.220;2022-11-10T02:17:58;77.37;;;45.83;;
7361;SDS011;3721;44.490;11.220;2022-11-10T02:20:23;73.97;;;44.70;;
7361;SDS011;3721;44.490;11.220;2022-11-10T02:22:49;77.33;;;47.17;;
7361;SDS011;3721;44.490;11.220;2022-11-10T02:25:16;82.43;;;47.00;;
7361;SDS011;3721;44.490;11.220;2022-11-10T02:27:45;79.23;;;46.70;;
7361;SDS011;3721;44.490;11.220;2022-11-10T02:30:10;80.50;;;44.53;;
7361;SDS011;3721;44.490;11.220;2022-11-10T02:32:37;79.43;;;46.13;;
7361;SDS011;3721;44.490;11.220;2022-11-10T02:35:03;71.13;;;44.07;;
7361;SDS011;3721;44.490;11.220;2022-11-10T02:37:29;80.10;;;46.27;;
7361;SDS011;3721;44.490;11.220;2022-11-10T02:39:54;76.63;;;47.80;;
7361;SDS011;3721;44.490;11.220;2022-11-10T02:42:20;89.10;;;48.63;;
7361;SDS011;3721;44.490;11.220;2022-11-10T02:44:45;89.60;;;51.17;;
7361;SDS011;3721;44.490;11.220;2022-11-10T02:47:11;89.83;;;48.67;;
7361;SDS011;3721;44.490;11.220;2022-11-10T02:49:37;90.13;;;51.37;;
7361;SDS011;3721;44.490;11.220;2022-11-10T02:52:03;98.03;;;53.33;;
7361;SDS011;3721;44.490;11.220;2022-11-10T02:54:29;93.10;;;53.13;;
7361;SDS011;3721;44.490;11.220;2022-11-10T02:56:54;95.53;;;52.50;;
7361;SDS011;3721;44.490;11.220;2022-11-10T02:59:20;96.57;;;52.10;;
7361;SDS011;3721;44.490;11.220;2022-11-10T03:01:45;91.30;;;53.93;;
7361;SDS011;3721;44.490;11.220;2022-11-10T03:04:11;93.23;;;52.30;;
7361;SDS011;3721;44.490;11.220;2022-11-10T03:06:37;94.33;;;51.57;;
7361;SDS011;3721;44.490;11.220;2022-11-10T03:09:02;87.60;;;51.10;;
7361;SDS011;3721;44.490;11.220;2022-11-10T03:11:28;102.40;;;55.13;;
7361;SDS011;3721;44.490;11.220;2022-11-10T03:13:54;94.53;;;53.30;;
7361;SDS011;3721;44.490;11.220;2022-11-10T03:16:19;91.93;;;53.03;;
7361;SDS011;3721;44.490;11.220;2022-11-10T03:18:45;88.67;;;51.37;;
7361;SDS011;3721;44.490;11.220;2022-11-10T03:21:10;109.53;;;56.87;;
7361;SDS011;3721;44.490;11.220;2022-11-10T03:23:36;100.90;;;56.10;;
7361;SDS011;3721;44.490;11.220;2022-11-10T03:26:02;99.90;;;54.63;;
7361;SDS011;3721;44.490;11.220;2022-11-10T03:28:29;115.47;;;59.20;;
7361;SDS011;3721;44.490;11.220;2022-11-10T03:30:54;112.63;;;58.50;;
7361;SDS011;3721;44.490;11.220;2022-11-10T03:33:20;111.93;;;57.00;;
7361;SDS011;3721;44.490;11.220;2022-11-10T03:35:46;111.03;;;57.27;;
7361;SDS011;3721;44.490;11.220;2022-11-10T03:38:11;97.27;;;52.47;;
7361;SDS011;3721;44.490;11.220;2022-11-10T03:40:37;90.43;;;52.47;;
7361;SDS011;3721;44.490;11.220;2022-11-10T03:43:03;83.43;;;49.97;;
7361;SDS011;3721;44.490;11.220;2022-11-10T03:45:28;86.90;;;50.30;;
7361;SDS011;3721;44.490;11.220;2022-11-10T03:47:55;83.40;;;50.27;;
7361;SDS011;3721;44.490;11.220;2022-11-10T03:50:20;81.10;;;46.43;;
7361;SDS011;3721;44.490;11.220;2022-11-10T03:52:46;76.53;;;47.60;;
7361;SDS011;3721;44.490;11.220;2022-11-10T03:55:14;73.77;;;47.47;;
7361;SDS011;3721;44.490;11.220;2022-11-10T03:57:41;77.40;;;47.13;;
7361;SDS011;3721;44.490;11.220;2022-11-10T04:00:07;82.37;;;48.80;;
7361;SDS011;3721;44.490;11.220;2022-11-10T04:02:35;69.37;;;44.60;;
7361;SDS011;3721;44.490;11.220;2022-11-10T04:05:01;70.03;;;44.03;;
7361;SDS011;3721;44.490;11.220;2022-11-10T04:07:45;68.87;;;43.10;;
7361;SDS011;3721;44.490;11.220;2022-11-10T04:10:29;73.93;;;43.77;;
7361;SDS011;3721;44.490;11.220;2022-11-10T04:12:54;63.47;;;39.83;;
7361;SDS011;3721;44.490;11.220;2022-11-10T04:15:39;67.20;;;41.37;;
7361;SDS011;3721;44.490;11.220;2022-11-10T04:18:10;69.50;;;41.83;;
7361;SDS011;3721;44.490;11.220;2022-11-10T04:20:48;65.00;;;40.13;;
7361;SDS011;3721;44.490;11.220;2022-11-10T04:23:15;71.13;;;42.70;;
7361;SDS011;3721;44.490;11.220;2022-11-10T04:26:10;61.70;;;39.07;;
7361;SDS011;3721;44.490;11.220;2022-11-10T04:28:54;71.43;;;42.07;;
7361;SDS011;3721;44.490;11.220;2022-11-10T04:31:23;62.10;;;39.77;;
7361;SDS011;3721;44.490;11.220;2022-11-10T04:33:50;66.80;;;42.50;;
7361;SDS011;3721;44.490;11.220;2022-11-10T04:36:18;59.97;;;39.03;;
7361;SDS011;3721;44.490;11.220;2022-11-10T04:38:49;69.80;;;41.80;;
7361;SDS011;3721;44.490;11.220;2022-11-10T04:41:15;67.07;;;41.20;;
7361;SDS011;3721;44.490;11.220;2022-11-10T04:43:41;67.50;;;41.90;;
7361;SDS011;3721;44.490;11.220;2022-11-10T04:46:09;70.33;;;41.07;;
7361;SDS011;3721;44.490;11.220;2022-11-10T04:48:40;63.53;;;39.03;;
7361;SDS011;3721;44.490;11.220;2022-11-10T04:51:06;73.33;;;39.30;;
7361;SDS011;3721;44.490;11.220;2022-11-10T04:53:32;63.37;;;40.80;;
7361;SDS011;3721;44.490;11.220;2022-11-10T04:55:57;71.33;;;40.67;;
7361;SDS011;3721;44.490;11.220;2022-11-10T04:58:23;60.60;;;39.20;;
7361;SDS011;3721;44.490;11.220;2022-11-10T05:00:49;71.93;;;42.00;;
7361;SDS011;3721;44.490;11.220;2022-11-10T05:03:14;76.37;;;43.07;;
7361;SDS011;3721;44.490;11.220;2022-11-10T05:05:40;74.57;;;44.90;;
7361;SDS011;3721;44.490;11.220;2022-11-10T05:08:06;79.07;;;44.07;;
7361;SDS011;3721;44.490;11.220;2022-11-10T05:10:35;88.77;;;48.67;;
7361;SDS011;3721;44.490;11.220;2022-11-10T05:13:01;74.57;;;43.80;;
7361;SDS011;3721;44.490;11.220;2022-11-10T05:15:29;79.33;;;45.90;;
7361;SDS011;3721;44.490;11.220;2022-11-10T05:17:55;80.07;;;44.13;;
7361;SDS011;3721;44.490;11.220;2022-11-10T05:20:22;67.60;;;40.70;;
7361;SDS011;3721;44.490;11.220;2022-11-10T05:22:49;81.00;;;42.40;;
7361;SDS011;3721;44.490;11.220;2022-11-10T05:25:36;77.40;;;41.63;;
7361;SDS011;3721;44.490;11.220;2022-11-10T05:28:04;78.63;;;45.40;;
7361;SDS011;3721;44.490;11.220;2022-11-10T05:30:31;65.13;;;39.53;;
7361;SDS011;3721;44.490;11.220;2022-11-10T05:32:57;74.07;;;43.20;;
7361;SDS011;3721;44.490;11.220;2022-11-10T05:35:23;77.23;;;41.97;;
7361;SDS011;3721;44.490;11.220;2022-11-10T05:37:49;83.33;;;43.47;;
7361;SDS011;3721;44.490;11.220;2022-11-10T05:40:15;78.57;;;41.30;;
7361;SDS011;3721;44.490;11.220;2022-11-10T05:42:41;67.67;;;41.00;;
7361;SDS011;3721;44.490;11.220;2022-11-10T05:45:11;65.37;;;40.97;;
7361;SDS011;3721;44.490;11.220;2022-11-10T05:47:37;78.27;;;43.13;;
7361;SDS011;3721;44.490;11.220;2022-11-10T05:50:03;76.77;;;41.53;;
7361;SDS011;3721;44.490;11.220;2022-11-10T05:52:30;77.40;;;41.63;;
7361;SDS011;3721;44.490;11.220;2022-11-10T05:54:56;68.87;;;42.17;;
7361;SDS011;3721;44.490;11.220;2022-11-10T05:57:21;81.07;;;42.90;;
7361;SDS011;3721;44.490;11.220;2022-11-10T05:59:47;67.63;;;39.63;;
7361;SDS011;3721;44.490;11.220;2022-11-10T06:02:12;76.73;;;42.50;;
7361;SDS011;3721;44.490;11.220;2022-11-10T06:04:38;81.97;;;41.70;;
7361;SDS011;3721;44.490;11.220;2022-11-10T06:07:04;74.27;;;43.73;;
7361;SDS011;3721;44.490;11.220;2022-11-10T06:09:32;77.37;;;41.50;;
7361;SDS011;3721;44.490;11.220;2022-11-10T06:11:58;72.07;;;40.37;;
7361;SDS011;3721;44.490;11.220;2022-11-10T06:14:24;68.43;;;40.87;;
7361;SDS011;3721;44.490;11.220;2022-11-10T06:16:49;79.13;;;44.43;;
7361;SDS011;3721;44.490;11.220;2022-11-10T06:19:15;77.53;;;42.77;;
7361;SDS011;3721;44.490;11.220;2022-11-10T06:21:40;82.03;;;44.20;;
7361;SDS011;3721;44.490;11.220;2022-11-10T06:24:06;81.60;;;44.73;;
7361;SDS011;3721;44.490;11.220;2022-11-10T06:26:33;79.93;;;43.87;;
7361;SDS011;3721;44.490;11.220;2022-11-10T06:28:59;93.60;;;44.87;;
7361;SDS011;3721;44.490;11.220;2022-11-10T06:31:25;85.97;;;45.17;;
7361;SDS011;3721;44.490;11.220;2022-11-10T06:33:51;77.13;;;43.50;;
7361;SDS011;3721;44.490;11.220;2022-11-10T06:36:16;85.20;;;44.30;;
7361;SDS011;3721;44.490;11.220;2022-11-10T06:38:42;82.37;;;43.47;;
7361;SDS011;3721;44.490;11.220;2022-11-10T06:41:08;85.60;;;45.20;;
7361;SDS011;3721;44.490;11.220;2022-11-10T06:43:34;87.37;;;43.07;;
7361;SDS011;3721;44.490;11.220;2022-11-10T06:45:59;78.00;;;42.53;;
7361;SDS011;3721;44.490;11.220;2022-11-10T06:48:25;81.53;;;44.47;;
7361;SDS011;3721;44.490;11.220;2022-11-10T06:50:51;92.80;;;45.60;;
7361;SDS011;3721;44.490;11.220;2022-11-10T06:53:16;80.27;;;43.80;;
7361;SDS011;3721;44.490;11.220;2022-11-10T06:55:42;70.60;;;42.00;;
7361;SDS011;3721;44.490;11.220;2022-11-10T06:58:08;80.20;;;43.40;;
7361;SDS011;3721;44.490;11.220;2022-11-10T07:00:34;93.57;;;44.93;;
7361;SDS011;3721;44.490;11.220;2022-11-10T07:03:00;75.60;;;41.50;;
7361;SDS011;3721;44.490;11.220;2022-11-10T07:05:28;69.30;;;39.23;;
7361;SDS011;3721;44.490;11.220;2022-11-10T07:07:54;67.30;;;38.73;;
7361;SDS011;3721;44.490;11.220;2022-11-10T07:10:20;71.33;;;39.60;;
7361;SDS011;3721;44.490;11.220;2022-11-10T07:12:45;76.23;;;41.37;;
7361;SDS011;3721;44.490;11.220;2022-11-10T07:15:11;70.40;;;39.43;;
7361;SDS011;3721;44.490;11.220;2022-11-10T07:17:39;72.50;;;39.40;;
7361;SDS011;3721;44.490;11.220;2022-11-10T07:20:06;83.33;;;40.30;;
7361;SDS011;3721;44.490;11.220;2022-11-10T07:22:32;73.97;;;39.97;;
7361;SDS011;3721;44.490;11.220;2022-11-10T07:24:58;76.80;;;39.70;;
7361;SDS011;3721;44.490;11.220;2022-11-10T07:27:23;68.53;;;39.90;;
7361;SDS011;3721;44.490;11.220;2022-11-10T07:29:49;70.33;;;40.80;;
7361;SDS011;3721;44.490;11.220;2022-11-10T07:32:15;75.27;;;41.23;;
7361;SDS011;3721;44.490;11.220;2022-11-10T07:34:40;79.17;;;41.73;;
7361;SDS011;3721;44.490;11.220;2022-11-10T07:37:06;81.90;;;43.50;;
7361;SDS011;3721;44.490;11.220;2022-11-10T07:39:33;75.80;;;41.57;;
7361;SDS011;3721;44.490;11.220;2022-11-10T07:41:58;77.50;;;42.07;;
7361;SDS011;3721;44.490;11.220;2022-11-10T07:44:24;77.43;;;42.93;;
7361;SDS011;3721;44.490;11.220;2022-11-10T07:46:51;86.47;;;45.40;;
7361;SDS011;3721;44.490;11.220;2022-11-10T07:49:17;81.90;;;43.03;;
7361;SDS011;3721;44.490;11.220;2022-11-10T07:51:43;87.47;;;44.83;;
7361;SDS011;3721;44.490;11.220;2022-11-10T07:54:08;74.17;;;44.60;;
7361;SDS011;3721;44.490;11.220;2022-11-10T07:56:34;84.23;;;45.60;;
7361;SDS011;3721;44.490;11.220;2022-11-10T07:59:00;82.13;;;44.90;;
7361;SDS011;3721;44.490;11.220;2022-11-10T08:01:25;82.17;;;45.10;;
7361;SDS011;3721;44.490;11.220;2022-11-10T08:03:51;77.67;;;43.23;;
7361;SDS011;3721;44.490;11.220;2022-11-10T08:06:17;81.27;;;45.70;;
7361;SDS011;3721;44.490;11.220;2022-11-10T08:08:44;76.50;;;43.37;;
7361;SDS011;3721;44.490;11.220;2022-11-10T08:11:13;81.40;;;45.23;;
7361;SDS011;3721;44.490;11.220;2022-11-10T08:13:38;90.67;;;45.20;;
7361;SDS011;3721;44.490;11.220;2022-11-10T08:16:05;88.93;;;48.43;;
7361;SDS011;3721;44.490;11.220;2022-11-10T08:18:31;79.13;;;44.97;;
7361;SDS011;3721;44.490;11.220;2022-11-10T08:20:59;98.13;;;48.17;;
7361;SDS011;3721;44.490;11.220;2022-11-10T08:23:28;99.17;;;47.03;;
7361;SDS011;3721;44.490;11.220;2022-11-10T08:25:56;93.10;;;46.90;;
7361;SDS011;3721;44.490;11.220;2022-11-10T08:28:22;87.57;;;47.07;;
7361;SDS011;3721;44.490;11.220;2022-11-10T08:30:48;97.30;;;48.20;;
7361;SDS011;3721;44.490;11.220;2022-11-10T08:33:15;91.43;;;46.97;;
7361;SDS011;3721;44.490;11.220;2022-11-10T08:35:43;80.73;;;43.80;;
7361;SDS011;3721;44.490;11.220;2022-11-10T08:40:37;79.67;;;46.27;;
7361;SDS011;3721;44.490;11.220;2022-11-10T08:43:04;96.10;;;46.00;;
7361;SDS011;3721;44.490;11.220;2022-11-10T08:45:34;93.73;;;49.83;;
7361;SDS011;3721;44.490;11.220;2022-11-10T08:48:04;91.93;;;50.03;;
7361;SDS011;3721;44.490;11.220;2022-11-10T08:50:40;85.23;;;47.43;;
7361;SDS011;3721;44.490;11.220;2022-11-10T08:53:08;91.53;;;46.63;;
7361;SDS011;3721;44.490;11.220;2022-11-10T08:55:36;93.13;;;47.43;;
7361;SDS011;3721;44.490;11.220;2022-11-10T08:58:02;85.73;;;45.60;;
7361;SDS011;3721;44.490;11.220;2022-11-10T09:00:29;83.43;;;46.50;;
7361;SDS011;3721;44.490;11.220;2022-11-10T09:03:00;92.17;;;50.20;;
7361;SDS011;3721;44.490;11.220;2022-11-10T09:05:36;84.33;;;49.60;;
7361;SDS011;3721;44.490;11.220;2022-11-10T09:08:01;88.60;;;47.57;;
7361;SDS011;3721;44.490;11.220;2022-11-10T09:10:28;77.97;;;47.83;;
7361;SDS011;3721;44.490;11.220;2022-11-10T09:12:57;89.60;;;49.90;;
7361;SDS011;3721;44.490;11.220;2022-11-10T09:15:24;87.70;;;48.60;;
7361;SDS011;3721;44.490;11.220;2022-11-10T09:17:50;86.83;;;48.07;;
7361;SDS011;3721;44.490;11.220;2022-11-10T09:20:15;79.53;;;47.13;;
7361;SDS011;3721;44.490;11.220;2022-11-10T09:22:41;72.70;;;45.83;;
7361;SDS011;3721;44.490;11.220;2022-11-10T09:25:07;78.20;;;45.60;;
7361;SDS011;3721;44.490;11.220;2022-11-10T09:27:36;77.80;;;45.77;;
7361;SDS011;3721;44.490;11.220;2022-11-10T09:30:06;78.40;;;47.77;;
7361;SDS011;3721;44.490;11.220;2022-11-10T09:32:35;80.97;;;45.53;;
7361;SDS011;3721;44.490;11.220;2022-11-10T09:35:01;86.30;;;47.40;;
7361;SDS011;3721;44.490;11.220;2022-11-10T09:37:27;77.87;;;45.37;;
7361;SDS011;3721;44.490;11.220;2022-11-10T09:39:53;77.67;;;45.97;;
7361;SDS011;3721;44.490;11.220;2022-11-10T09:42:26;79.00;;;46.20;;
7361;SDS011;3721;44.490;11.220;2022-11-10T09:45:16;83.33;;;48.77;;
7361;SDS011;3721;44.490;11.220;2022-11-10T09:47:57;88.10;;;50.40;;
7361;SDS011;3721;44.490;11.220;2022-11-10T09:50:35;100.93;;;49.63;;
7361;SDS011;3721;44.490;11.220;2022-11-10T09:53:07;104.87;;;55.90;;
7361;SDS011;3721;44.490;11.220;2022-11-10T09:58:42;111.93;;;60.40;;
7361;SDS011;3721;44.490;11.220;2022-11-10T10:01:12;113.53;;;58.80;;
7361;SDS011;3721;44.490;11.220;2022-11-10T10:03:45;100.60;;;56.67;;
7361;SDS011;3721;44.490;11.220;2022-11-10T10:06:16;120.03;;;59.83;;
7361;SDS011;3721;44.490;11.220;2022-11-10T10:19:49;96.90;;;54.60;;
7361;SDS011;3721;44.490;11.220;2022-11-10T10:23:10;112.67;;;55.60;;
7361;SDS011;3721;44.490;11.220;2022-11-10T10:25:45;95.63;;;53.37;;
7361;SDS011;3721;44.490;11.220;2022-11-10T10:28:13;102.13;;;56.50;;
7361;SDS011;3721;44.490;11.220;2022-11-10T10:30:54;100.90;;;50.60;;
7361;SDS011;3721;44.490;11.220;2022-11-10T10:33:30;104.40;;;53.90;;
7361;SDS011;3721;44.490;11.220;2022-11-10T10:35:56;101.70;;;54.37;;
7361;SDS011;3721;44.490;11.220;2022-11-10T10:38:30;102.80;;;55.70;;
7361;SDS011;3721;44.490;11.220;2022-11-10T10:41:01;109.63;;;55.80;;
7361;SDS011;3721;44.490;11.220;2022-11-10T10:43:45;98.70;;;52.70;;
7361;SDS011;3721;44.490;11.220;2022-11-10T10:46:13;103.90;;;53.93;;
7361;SDS011;3721;44.490;11.220;2022-11-10T10:48:40;102.77;;;55.33;;
7361;SDS011;3721;44.490;11.220;2022-11-10T10:51:06;103.50;;;55.37;;
7361;SDS011;3721;44.490;11.220;2022-11-10T10:53:32;113.23;;;57.03;;
7361;SDS011;3721;44.490;11.220;2022-11-10T10:56:17;104.43;;;53.33;;
7361;SDS011;3721;44.490;11.220;2022-11-10T10:58:50;104.10;;;55.13;;
7361;SDS011;3721;44.490;11.220;2022-11-10T11:01:30;100.97;;;56.70;;
7361;SDS011;3721;44.490;11.220;2022-11-10T11:03:58;101.73;;;51.77;;
7361;SDS011;3721;44.490;11.220;2022-11-10T11:06:29;99.73;;;54.57;;
7361;SDS011;3721;44.490;11.220;2022-11-10T11:11:34;100.10;;;53.47;;
7361;SDS011;3721;44.490;11.220;2022-11-10T11:14:12;95.67;;;49.50;;
7361;SDS011;3721;44.490;11.220;2022-11-10T11:16:53;92.37;;;51.30;;
7361;SDS011;3721;44.490;11.220;2022-11-10T11:19:21;99.00;;;54.97;;
7361;SDS011;3721;44.490;11.220;2022-11-10T11:38:30;83.10;;;49.17;;
7361;SDS011;3721;44.490;11.220;2022-11-10T11:41:27;77.83;;;49.03;;
7361;SDS011;3721;44.490;11.220;2022-11-10T11:44:15;87.43;;;48.50;;
7361;SDS011;3721;44.490;11.220;2022-11-10T11:52:18;76.40;;;44.07;;
7361;SDS011;3721;44.490;11.220;2022-11-10T11:58:54;80.70;;;44.90;;
7361;SDS011;3721;44.490;11.220;2022-11-10T12:01:18;76.13;;;41.77;;
7361;SDS011;3721;44.490;11.220;2022-11-10T12:04:05;76.07;;;40.27;;
7361;SDS011;3721;44.490;11.220;2022-11-10T12:09:17;90.67;;;44.10;;
7361;SDS011;3721;44.490;11.220;2022-11-10T12:21:35;77.17;;;45.70;;
7361;SDS011;3721;44.490;11.220;2022-11-10T12:34:58;76.87;;;42.77;;
7361;SDS011;3721;44.490;11.220;2022-11-10T12:38:06;79.90;;;42.40;;
7361;SDS011;3721;44.490;11.220;2022-11-10T12:43:34;80.80;;;41.97;;
7361;SDS011;3721;44.490;11.220;2022-11-10T12:46:20;64.83;;;37.53;;
7361;SDS011;3721;44.490;11.220;2022-11-10T12:54:32;61.37;;;37.07;;
7361;SDS011;3721;44.490;11.220;2022-11-10T12:57:03;69.93;;;37.10;;
7361;SDS011;3721;44.490;11.220;2022-11-10T12:59:48;58.57;;;35.00;;
7361;SDS011;3721;44.490;11.220;2022-11-10T13:11:33;60.10;;;36.90;;
7361;SDS011;3721;44.490;11.220;2022-11-10T13:13:56;62.33;;;35.97;;
7361;SDS011;3721;44.490;11.220;2022-11-10T13:19:08;63.50;;;36.87;;
7361;SDS011;3721;44.490;11.220;2022-11-10T13:26:49;63.00;;;37.10;;
7361;SDS011;3721;44.490;11.220;2022-11-10T13:34:36;67.27;;;36.33;;
7361;SDS011;3721;44.490;11.220;2022-11-10T13:37:41;64.40;;;35.93;;
7361;SDS011;3721;44.490;11.220;2022-11-10T13:45:35;62.80;;;36.40;;
7361;SDS011;3721;44.490;11.220;2022-11-10T13:53:39;60.83;;;34.70;;
7361;SDS011;3721;44.490;11.220;2022-11-10T13:59:16;55.23;;;31.27;;
7361;SDS011;3721;44.490;11.220;2022-11-10T14:01:48;54.17;;;32.63;;
7361;SDS011;3721;44.490;11.220;2022-11-10T14:07:01;55.07;;;34.93;;
7361;SDS011;3721;44.490;11.220;2022-11-10T14:09:35;52.97;;;34.50;;
7361;SDS011;3721;44.490;11.220;2022-11-10T14:12:21;56.37;;;32.80;;
7361;SDS011;3721;44.490;11.220;2022-11-10T14:21:19;59.17;;;34.83;;
7361;SDS011;3721;44.490;11.220;2022-11-10T14:23:52;49.10;;;31.67;;
7361;SDS011;3721;44.490;11.220;2022-11-10T14:26:26;59.93;;;34.00;;
7361;SDS011;3721;44.490;11.220;2022-11-10T14:32:11;55.70;;;33.93;;
7361;SDS011;3721;44.490;11.220;2022-11-10T14:34:47;57.07;;;34.10;;
7361;SDS011;3721;44.490;11.220;2022-11-10T14:37:16;58.37;;;33.97;;
7361;SDS011;3721;44.490;11.220;2022-11-10T14:39:52;60.50;;;33.60;;
7361;SDS011;3721;44.490;11.220;2022-11-10T14:42:26;57.07;;;33.57;;
7361;SDS011;3721;44.490;11.220;2022-11-10T14:45:10;56.20;;;34.00;;
7361;SDS011;3721;44.490;11.220;2022-11-10T14:47:49;57.90;;;34.40;;
7361;SDS011;3721;44.490;11.220;2022-11-10T14:50:26;52.70;;;32.60;;
7361;SDS011;3721;44.490;11.220;2022-11-10T14:55:42;55.50;;;34.47;;
7361;SDS011;3721;44.490;11.220;2022-11-10T15:00:58;55.37;;;32.37;;
7361;SDS011;3721;44.490;11.220;2022-11-10T15:06:05;51.97;;;33.07;;
7361;SDS011;3721;44.490;11.220;2022-11-10T15:08:36;52.60;;;33.37;;
7361;SDS011;3721;44.490;11.220;2022-11-10T15:11:03;54.00;;;33.97;;
7361;SDS011;3721;44.490;11.220;2022-11-10T15:18:49;63.57;;;35.90;;
7361;SDS011;3721;44.490;11.220;2022-11-10T15:21:16;59.80;;;34.20;;
7361;SDS011;3721;44.490;11.220;2022-11-10T15:23:44;72.80;;;38.80;;
7361;SDS011;3721;44.490;11.220;2022-11-10T15:26:25;67.33;;;37.07;;
7361;SDS011;3721;44.490;11.220;2022-11-10T15:28:53;65.07;;;35.20;;
7361;SDS011;3721;44.490;11.220;2022-11-10T15:33:48;68.40;;;38.70;;
7361;SDS011;3721;44.490;11.220;2022-11-10T15:41:37;64.33;;;38.37;;
7361;SDS011;3721;44.490;11.220;2022-11-10T15:46:40;68.70;;;40.50;;
7361;SDS011;3721;44.490;11.220;2022-11-10T15:49:18;66.60;;;39.97;;
7361;SDS011;3721;44.490;11.220;2022-11-10T15:51:44;78.67;;;41.50;;
7361;SDS011;3721;44.490;11.220;2022-11-10T15:54:10;83.47;;;45.00;;
7361;SDS011;3721;44.490;11.220;2022-11-10T15:56:36;82.40;;;46.30;;
7361;SDS011;3721;44.490;11.220;2022-11-10T15:59:02;81.10;;;45.77;;
7361;SDS011;3721;44.490;11.220;2022-11-10T16:01:28;74.23;;;42.97;;
7361;SDS011;3721;44.490;11.220;2022-11-10T16:03:54;77.37;;;41.43;;
7361;SDS011;3721;44.490;11.220;2022-11-10T16:06:20;68.50;;;41.47;;
7361;SDS011;3721;44.490;11.220;2022-11-10T16:08:46;71.70;;;41.20;;
7361;SDS011;3721;44.490;11.220;2022-11-10T16:11:18;63.17;;;36.73;;
7361;SDS011;3721;44.490;11.220;2022-11-10T16:13:45;67.10;;;37.87;;
7361;SDS011;3721;44.490;11.220;2022-11-10T16:16:13;57.23;;;34.70;;
7361;SDS011;3721;44.490;11.220;2022-11-10T16:18:41;63.77;;;35.50;;
7361;SDS011;3721;44.490;11.220;2022-11-10T16:21:14;63.03;;;35.00;;
7361;SDS011;3721;44.490;11.220;2022-11-10T16:23:41;58.30;;;33.27;;
7361;SDS011;3721;44.490;11.220;2022-11-10T16:26:09;60.07;;;36.03;;
7361;SDS011;3721;44.490;11.220;2022-11-10T16:28:41;64.23;;;36.77;;
7361;SDS011;3721;44.490;11.220;2022-11-10T16:31:08;71.37;;;38.73;;
7361;SDS011;3721;44.490;11.220;2022-11-10T16:33:35;63.63;;;36.13;;
7361;SDS011;3721;44.490;11.220;2022-11-10T16:36:01;67.90;;;37.17;;
7361;SDS011;3721;44.490;11.220;2022-11-10T16:38:28;63.57;;;37.80;;
7361;SDS011;3721;44.490;11.220;2022-11-10T16:41:02;63.13;;;36.43;;
7361;SDS011;3721;44.490;11.220;2022-11-10T16:43:29;60.47;;;35.10;;
7361;SDS011;3721;44.490;11.220;2022-11-10T16:45:56;58.13;;;34.47;;
7361;SDS011;3721;44.490;11.220;2022-11-10T16:48:27;54.80;;;33.93;;
7361;SDS011;3721;44.490;11.220;2022-11-10T16:50:58;52.60;;;34.17;;
7361;SDS011;3721;44.490;11.220;2022-11-10T16:53:29;51.60;;;31.90;;
7361;SDS011;3721;44.490;11.220;2022-11-10T16:55:56;58.80;;;33.97;;
7361;SDS011;3721;44.490;11.220;2022-11-10T16:58:25;52.93;;;34.40;;
7361;SDS011;3721;44.490;11.220;2022-11-10T17:00:52;49.77;;;29.57;;
7361;SDS011;3721;44.490;11.220;2022-11-10T17:05:58;51.77;;;29.53;;
7361;SDS011;3721;44.490;11.220;2022-11-10T17:08:25;59.33;;;29.97;;
7361;SDS011;3721;44.490;11.220;2022-11-10T17:10:53;53.13;;;33.33;;
7361;SDS011;3721;44.490;11.220;2022-11-10T17:13:21;46.87;;;30.77;;
7361;SDS011;3721;44.490;11.220;2022-11-10T17:15:47;49.53;;;31.03;;
7361;SDS011;3721;44.490;11.220;2022-11-10T17:18:14;51.17;;;30.43;;
7361;SDS011;3721;44.490;11.220;2022-11-10T17:20:44;54.10;;;32.20;;